createdAt,value
2019-01-08T00:00:27.428Z,7.38
2019-01-08T00:01:49.178Z,7.47
2019-01-08T00:02:27.406Z,7.35
2019-01-08T00:03:27.393Z,7.38
2019-01-08T00:04:27.388Z,7.39
2019-01-08T00:05:27.404Z,7.36
2019-01-08T00:06:27.368Z,7.40
2019-01-08T00:07:48.375Z,7.42
2019-01-08T00:08:27.359Z,7.39
2019-01-08T00:09:27.364Z,7.48
2019-01-08T00:10:27.336Z,7.43
2019-01-08T00:11:27.332Z,7.45
2019-01-08T00:12:27.318Z,7.45
2019-01-08T00:13:48.331Z,7.47
2019-01-08T00:14:27.297Z,7.47
2019-01-08T00:15:27.292Z,7.47
2019-01-08T00:16:27.282Z,7.45
2019-01-08T00:17:27.280Z,7.50
2019-01-08T00:18:27.264Z,7.43
2019-01-08T00:19:48.271Z,7.43
2019-01-08T00:20:27.245Z,7.45
2019-01-08T00:21:27.439Z,7.43
2019-01-08T00:22:27.231Z,7.45
2019-01-08T00:23:27.275Z,7.47
2019-01-08T00:24:27.284Z,7.50
2019-01-08T00:25:48.213Z,7.47
2019-01-08T00:26:27.225Z,7.48
2019-01-08T00:27:27.185Z,7.53
2019-01-08T00:28:27.243Z,7.47
2019-01-08T00:29:27.170Z,7.47
2019-01-08T00:30:27.163Z,7.54
2019-01-08T00:31:48.203Z,7.53
2019-01-08T00:32:27.141Z,7.53
2019-01-08T00:33:27.193Z,7.53
2019-01-08T00:34:27.125Z,7.53
2019-01-08T00:35:27.118Z,7.48
2019-01-08T00:36:27.107Z,7.48
2019-01-08T00:37:48.131Z,7.48
2019-01-08T00:38:27.091Z,7.40
2019-01-08T00:39:27.080Z,7.50
2019-01-08T00:40:27.142Z,7.45
2019-01-08T00:41:27.062Z,7.47
2019-01-08T00:42:27.056Z,7.47
2019-01-08T00:43:48.056Z,7.56
2019-01-08T00:44:27.039Z,7.56
2019-01-08T00:45:27.108Z,7.58
2019-01-08T00:46:27.041Z,7.66
2019-01-08T00:47:27.008Z,7.57
2019-01-08T00:48:27.002Z,7.63
2019-01-08T00:49:48.009Z,7.63
2019-01-08T00:50:26.989Z,7.63
2019-01-08T00:51:27.046Z,7.63
2019-01-08T00:52:27.908Z,7.63
2019-01-08T00:53:26.959Z,7.51
2019-01-08T00:54:26.950Z,7.63
2019-01-08T00:55:47.950Z,7.58
2019-01-08T00:56:26.931Z,7.70
2019-01-08T00:57:26.925Z,7.63
2019-01-08T00:58:26.923Z,7.73
2019-01-08T00:59:26.909Z,7.69
2019-01-08T01:00:26.917Z,7.61
2019-01-08T01:01:47.999Z,7.70
2019-01-08T01:02:26.888Z,7.66
2019-01-08T01:03:26.873Z,7.63
2019-01-08T01:04:26.868Z,7.61
2019-01-08T01:05:26.857Z,7.67
2019-01-08T01:06:26.850Z,7.67
2019-01-08T01:07:47.846Z,7.66
2019-01-08T01:08:26.830Z,7.70
2019-01-08T01:09:26.822Z,7.72
2019-01-08T01:10:26.817Z,7.73
2019-01-08T01:11:26.804Z,7.75
2019-01-08T01:12:26.798Z,7.73
2019-01-08T01:13:47.792Z,7.70
2019-01-08T01:14:26.779Z,7.66
2019-01-08T01:15:26.774Z,7.73
2019-01-08T01:16:26.763Z,7.77
2019-01-08T01:17:26.836Z,7.82
2019-01-08T01:18:26.875Z,7.79
2019-01-08T01:19:49.366Z,7.75
2019-01-08T01:20:27.752Z,7.80
2019-01-08T01:21:26.789Z,7.83
2019-01-08T01:22:26.827Z,7.80
2019-01-08T01:23:26.705Z,7.83
2019-01-08T01:24:26.701Z,7.82
2019-01-08T01:25:47.696Z,7.87
2019-01-08T01:26:26.689Z,7.83
2019-01-08T01:27:26.693Z,7.97
2019-01-08T01:28:26.680Z,7.83
2019-01-08T01:29:26.667Z,7.85
2019-01-08T01:30:26.655Z,7.88
2019-01-08T01:31:47.697Z,7.93
2019-01-08T01:32:26.631Z,7.85
2019-01-08T01:33:26.631Z,7.97
2019-01-08T01:34:26.616Z,7.94
2019-01-08T01:35:26.605Z,7.94
2019-01-08T01:36:26.596Z,7.87
2019-01-08T01:37:47.659Z,7.94
2019-01-08T01:38:26.623Z,7.98
2019-01-08T01:39:26.562Z,7.94
2019-01-08T01:40:26.564Z,7.97
2019-01-08T01:41:26.553Z,7.94
2019-01-08T01:42:26.553Z,7.94
2019-01-08T01:43:47.546Z,8.00
2019-01-08T01:44:26.529Z,7.94
2019-01-08T01:45:26.512Z,7.90
2019-01-08T01:46:26.505Z,7.93
2019-01-08T01:47:26.493Z,7.90
2019-01-08T01:48:26.591Z,7.83
2019-01-08T01:49:47.477Z,7.85
2019-01-08T01:50:26.466Z,7.85
2019-01-08T01:51:26.539Z,7.97
2019-01-08T01:52:26.461Z,7.95
2019-01-08T01:53:26.699Z,8.03
2019-01-08T01:54:26.439Z,7.87
2019-01-08T01:55:47.437Z,7.85
2019-01-08T01:56:26.421Z,7.77
2019-01-08T01:57:26.436Z,7.77
2019-01-08T01:58:26.401Z,7.82
2019-01-08T01:59:27.476Z,7.85
2019-01-08T02:00:26.375Z,7.83
2019-01-08T02:01:47.489Z,7.83
2019-01-08T02:02:26.366Z,7.85
2019-01-08T02:03:26.360Z,7.82
2019-01-08T02:04:26.363Z,7.88
2019-01-08T02:05:26.343Z,7.83
2019-01-08T02:06:26.333Z,7.85
2019-01-08T02:07:47.335Z,7.97
2019-01-08T02:08:26.316Z,7.93
2019-01-08T02:09:26.306Z,7.95
2019-01-08T02:10:26.305Z,7.98
2019-01-08T02:11:26.291Z,7.83
2019-01-08T02:12:26.280Z,7.97
2019-01-08T02:13:47.281Z,7.95
2019-01-08T02:14:26.267Z,7.95
2019-01-08T02:15:26.256Z,8.00
2019-01-08T02:16:26.246Z,7.97
2019-01-08T02:17:26.237Z,7.94
2019-01-08T02:18:26.232Z,7.98
2019-01-08T02:19:47.229Z,8.00
2019-01-08T02:20:26.214Z,7.95
2019-01-08T02:21:26.210Z,7.98
2019-01-08T02:22:26.201Z,8.01
2019-01-08T02:23:26.190Z,7.97
2019-01-08T02:24:27.142Z,7.97
2019-01-08T02:25:47.186Z,7.90
2019-01-08T02:26:26.169Z,7.91
2019-01-08T02:27:26.156Z,7.95
2019-01-08T02:28:26.156Z,7.85
2019-01-08T02:29:26.214Z,7.93
2019-01-08T02:30:26.131Z,7.94
2019-01-08T02:31:47.188Z,7.94
2019-01-08T02:32:26.113Z,7.90
2019-01-08T02:33:26.185Z,7.88
2019-01-08T02:34:26.105Z,7.97
2019-01-08T02:35:26.088Z,7.95
2019-01-08T02:36:26.078Z,7.98
2019-01-08T02:37:47.079Z,7.87
2019-01-08T02:38:26.065Z,7.85
2019-01-08T02:39:26.058Z,7.97
2019-01-08T02:40:26.046Z,7.88
2019-01-08T02:41:26.082Z,7.82
2019-01-08T02:42:26.027Z,7.85
2019-01-08T02:43:47.027Z,7.82
2019-01-08T02:44:26.082Z,7.85
2019-01-08T02:45:26.001Z,7.87
2019-01-08T02:46:26.033Z,7.80
2019-01-08T02:47:25.985Z,7.88
2019-01-08T02:48:25.978Z,7.77
2019-01-08T02:49:46.986Z,7.83
2019-01-08T02:50:25.964Z,7.83
2019-01-08T02:51:25.950Z,7.80
2019-01-08T02:52:25.942Z,7.94
2019-01-08T02:53:25.932Z,8.00
2019-01-08T02:54:26.077Z,7.83
2019-01-08T02:55:46.919Z,7.97
2019-01-08T02:56:25.909Z,7.93
2019-01-08T02:57:25.901Z,7.85
2019-01-08T02:58:25.889Z,7.90
2019-01-08T02:59:25.882Z,7.87
2019-01-08T03:00:25.874Z,7.88
2019-01-08T03:01:46.981Z,7.88
2019-01-08T03:02:25.857Z,7.93
2019-01-08T03:03:25.856Z,7.91
2019-01-08T03:04:25.866Z,7.88
2019-01-08T03:05:25.829Z,7.93
2019-01-08T03:06:25.825Z,7.87
2019-01-08T03:07:46.828Z,7.93
2019-01-08T03:08:25.815Z,7.87
2019-01-08T03:09:25.799Z,8.00
2019-01-08T03:10:25.787Z,7.98
2019-01-08T03:11:25.778Z,7.95
2019-01-08T03:12:25.838Z,8.00
2019-01-08T03:13:46.780Z,8.00
2019-01-08T03:14:25.785Z,8.03
2019-01-08T03:15:25.745Z,8.01
2019-01-08T03:16:25.737Z,8.06
2019-01-08T03:17:25.728Z,8.15
2019-01-08T03:18:25.719Z,8.10
2019-01-08T03:19:46.717Z,8.10
2019-01-08T03:20:25.702Z,8.05
2019-01-08T03:21:25.709Z,8.16
2019-01-08T03:22:25.686Z,8.08
2019-01-08T03:23:25.695Z,8.09
2019-01-08T03:24:25.669Z,8.09
2019-01-08T03:25:46.664Z,8.13
2019-01-08T03:26:25.655Z,8.08
2019-01-08T03:27:25.642Z,8.10
2019-01-08T03:28:25.636Z,8.15
2019-01-08T03:29:33.305Z,8.18
2019-01-08T03:30:25.627Z,8.08
2019-01-08T03:31:46.677Z,8.10
2019-01-08T03:32:25.611Z,8.09
2019-01-08T03:33:25.606Z,8.20
2019-01-08T03:34:25.589Z,8.23
2019-01-08T03:35:25.576Z,8.24
2019-01-08T03:36:25.573Z,8.24
2019-01-08T03:37:46.565Z,8.19
2019-01-08T03:38:25.552Z,8.26
2019-01-08T03:39:25.543Z,8.20
2019-01-08T03:40:25.549Z,8.23
2019-01-08T03:41:25.530Z,8.31
2019-01-08T03:42:25.529Z,8.34
2019-01-08T03:43:46.518Z,8.33
2019-01-08T03:44:25.505Z,8.33
2019-01-08T03:45:25.493Z,8.18
2019-01-08T03:46:25.486Z,8.20
2019-01-08T03:47:25.475Z,8.27
2019-01-08T03:48:25.479Z,8.30
2019-01-08T03:49:46.468Z,8.24
2019-01-08T03:50:25.455Z,8.27
2019-01-08T03:51:25.508Z,8.20
2019-01-08T03:52:25.433Z,8.19
2019-01-08T03:53:25.430Z,8.20
2019-01-08T03:54:25.427Z,8.26
2019-01-08T03:55:46.422Z,8.24
2019-01-08T03:56:26.345Z,8.23
2019-01-08T03:57:25.395Z,8.26
2019-01-08T03:58:25.387Z,8.26
2019-01-08T03:59:25.393Z,8.24
2019-01-08T04:00:25.375Z,8.16
2019-01-08T04:01:46.463Z,8.23
2019-01-08T04:02:25.352Z,8.16
2019-01-08T04:03:25.348Z,8.26
2019-01-08T04:04:25.347Z,8.27
2019-01-08T04:05:25.327Z,8.27
2019-01-08T04:06:25.320Z,8.26
2019-01-08T04:07:46.319Z,8.20
2019-01-08T04:08:25.304Z,8.27
2019-01-08T04:09:25.300Z,8.26
2019-01-08T04:10:25.287Z,8.24
2019-01-08T04:11:25.275Z,8.28
2019-01-08T04:12:25.279Z,8.18
2019-01-08T04:13:46.269Z,8.20
2019-01-08T04:14:25.335Z,8.27
2019-01-08T04:15:25.248Z,8.27
2019-01-08T04:16:25.238Z,8.19
2019-01-08T04:17:25.235Z,8.26
2019-01-08T04:18:39.887Z,8.23
2019-01-08T04:19:46.215Z,8.19
2019-01-08T04:20:25.204Z,8.13
2019-01-08T04:21:25.201Z,8.15
2019-01-08T04:22:25.188Z,8.08
2019-01-08T04:23:25.200Z,8.10
2019-01-08T04:24:25.176Z,8.08
2019-01-08T04:25:46.166Z,8.05
2019-01-08T04:26:25.155Z,7.98
2019-01-08T04:27:25.148Z,8.01
2019-01-08T04:28:25.160Z,8.05
2019-01-08T04:29:25.129Z,7.95
2019-01-08T04:30:25.120Z,8.00
2019-01-08T04:31:46.151Z,7.98
2019-01-08T04:32:25.100Z,7.97
2019-01-08T04:33:25.095Z,8.00
2019-01-08T04:34:25.089Z,7.97
2019-01-08T04:35:25.079Z,7.97
2019-01-08T04:36:25.073Z,7.97
2019-01-08T04:37:46.857Z,7.97
2019-01-08T04:38:25.061Z,7.97
2019-01-08T04:39:25.118Z,8.01
2019-01-08T04:40:25.045Z,7.98
2019-01-08T04:41:25.040Z,7.97
2019-01-08T04:42:25.019Z,8.01
2019-01-08T04:43:46.016Z,8.00
2019-01-08T04:44:25.055Z,7.98
2019-01-08T04:45:24.999Z,8.01
2019-01-08T04:46:24.989Z,8.09
2019-01-08T04:47:24.984Z,7.98
2019-01-08T04:48:24.985Z,8.01
2019-01-08T04:49:45.972Z,7.98
2019-01-08T04:50:24.954Z,7.98
2019-01-08T04:51:24.946Z,7.98
2019-01-08T04:52:24.941Z,8.00
2019-01-08T04:53:24.931Z,7.95
2019-01-08T04:54:24.971Z,8.00
2019-01-08T04:55:45.919Z,7.90
2019-01-08T04:56:24.905Z,8.00
2019-01-08T04:57:25.084Z,7.93
2019-01-08T04:58:24.888Z,8.01
2019-01-08T04:59:24.875Z,7.95
2019-01-08T05:00:24.871Z,7.94
2019-01-08T05:01:45.950Z,7.93
2019-01-08T05:02:24.853Z,7.79
2019-01-08T05:03:24.850Z,7.93
2019-01-08T05:04:24.840Z,7.93
2019-01-08T05:05:24.832Z,7.85
2019-01-08T05:06:24.818Z,7.82
2019-01-08T05:07:45.818Z,7.90
2019-01-08T05:08:24.809Z,7.88
2019-01-08T05:09:24.803Z,7.88
2019-01-08T05:10:24.781Z,7.83
2019-01-08T05:11:24.782Z,7.87
2019-01-08T05:12:24.772Z,7.93
2019-01-08T05:13:45.764Z,7.79
2019-01-08T05:14:24.753Z,7.90
2019-01-08T05:15:24.739Z,7.88
2019-01-08T05:16:24.736Z,7.97
2019-01-08T05:17:24.725Z,7.98
2019-01-08T05:18:24.729Z,7.93
2019-01-08T05:19:45.714Z,7.93
2019-01-08T05:20:24.703Z,7.95
2019-01-08T05:21:24.687Z,7.94
2019-01-08T05:22:24.683Z,7.85
2019-01-08T05:23:24.678Z,7.82
2019-01-08T05:24:24.666Z,7.82
2019-01-08T05:25:45.661Z,7.90
2019-01-08T05:26:24.650Z,7.83
2019-01-08T05:27:24.643Z,7.85
2019-01-08T05:28:25.486Z,7.87
2019-01-08T05:29:24.620Z,7.85
2019-01-08T05:30:24.614Z,7.85
2019-01-08T05:31:45.648Z,7.87
2019-01-08T05:32:24.609Z,7.80
2019-01-08T05:33:24.593Z,7.80
2019-01-08T05:34:24.578Z,7.88
2019-01-08T05:35:24.570Z,7.80
2019-01-08T05:36:24.562Z,7.77
2019-01-08T05:37:45.559Z,7.94
2019-01-08T05:38:24.546Z,7.90
2019-01-08T05:39:24.541Z,7.94
2019-01-08T05:40:24.527Z,7.94
2019-01-08T05:41:24.520Z,7.95
2019-01-08T05:42:24.517Z,8.00
2019-01-08T05:43:45.507Z,7.98
2019-01-08T05:44:24.501Z,8.01
2019-01-08T05:45:24.485Z,7.98
2019-01-08T05:46:24.480Z,8.06
2019-01-08T05:47:24.465Z,8.09
2019-01-08T05:48:24.467Z,8.10
2019-01-08T05:49:45.476Z,8.06
2019-01-08T05:50:24.445Z,8.08
2019-01-08T05:51:24.482Z,8.09
2019-01-08T05:52:24.422Z,8.05
2019-01-08T05:53:24.416Z,8.06
2019-01-08T05:54:24.414Z,8.05
2019-01-08T05:55:45.415Z,8.10
2019-01-08T05:56:24.389Z,8.08
2019-01-08T05:57:24.383Z,8.06
2019-01-08T05:58:24.384Z,8.13
2019-01-08T05:59:24.366Z,8.16
2019-01-08T06:00:24.360Z,8.08
2019-01-08T06:01:45.437Z,8.13
2019-01-08T06:02:24.345Z,8.13
2019-01-08T06:03:24.349Z,8.13
2019-01-08T06:04:24.342Z,8.10
2019-01-08T06:05:24.323Z,8.15
2019-01-08T06:06:24.311Z,8.20
2019-01-08T06:07:45.302Z,8.23
2019-01-08T06:08:24.286Z,8.26
2019-01-08T06:09:24.292Z,8.24
2019-01-08T06:10:24.276Z,8.27
2019-01-08T06:11:24.266Z,8.20
2019-01-08T06:12:24.260Z,8.27
2019-01-08T06:13:45.254Z,8.26
2019-01-08T06:14:24.243Z,8.33
2019-01-08T06:15:24.230Z,8.30
2019-01-08T06:16:24.231Z,8.28
2019-01-08T06:17:24.214Z,8.26
2019-01-08T06:18:24.213Z,8.30
2019-01-08T06:19:45.207Z,8.23
2019-01-08T06:20:24.198Z,8.31
2019-01-08T06:21:24.181Z,8.31
2019-01-08T06:22:24.179Z,8.20
2019-01-08T06:23:24.163Z,8.28
2019-01-08T06:24:24.160Z,8.28
2019-01-08T06:25:45.156Z,8.33
2019-01-08T06:26:24.141Z,8.20
2019-01-08T06:27:24.146Z,8.16
2019-01-08T06:28:24.124Z,8.30
2019-01-08T06:29:24.247Z,8.19
2019-01-08T06:30:24.829Z,8.33
2019-01-08T06:31:45.134Z,8.31
2019-01-08T06:32:24.089Z,8.34
2019-01-08T06:33:24.086Z,8.31
2019-01-08T06:34:24.078Z,8.37
2019-01-08T06:35:24.069Z,8.36
2019-01-08T06:36:24.066Z,8.37
2019-01-08T06:37:45.071Z,8.34
2019-01-08T06:38:24.069Z,8.48
2019-01-08T06:39:24.032Z,8.51
2019-01-08T06:40:24.021Z,8.48
2019-01-08T06:41:24.034Z,8.49
2019-01-08T06:42:24.008Z,8.52
2019-01-08T06:43:45.009Z,8.48
2019-01-08T06:44:23.997Z,8.48
2019-01-08T06:45:23.984Z,8.49
2019-01-08T06:46:23.980Z,8.56
2019-01-08T06:47:23.983Z,8.60
2019-01-08T06:48:23.963Z,8.61
2019-01-08T06:49:44.962Z,8.42
2019-01-08T06:50:23.950Z,8.52
2019-01-08T06:51:23.938Z,8.44
2019-01-08T06:52:23.941Z,8.55
2019-01-08T06:53:23.921Z,8.42
2019-01-08T06:54:23.914Z,8.58
2019-01-08T06:55:44.921Z,8.53
2019-01-08T06:56:23.901Z,8.70
2019-01-08T06:57:23.935Z,8.63
2019-01-08T06:58:23.926Z,8.56
2019-01-08T06:59:23.873Z,8.69
2019-01-08T07:00:33.008Z,8.60
2019-01-08T07:01:44.922Z,8.58
2019-01-08T07:02:23.851Z,8.61
2019-01-08T07:03:23.842Z,8.56
2019-01-08T07:04:23.832Z,8.56
2019-01-08T07:05:23.823Z,8.58
2019-01-08T07:06:23.820Z,8.61
2019-01-08T07:07:44.859Z,8.64
2019-01-08T07:08:23.802Z,8.58
2019-01-08T07:09:23.793Z,8.58
2019-01-08T07:10:23.783Z,8.70
2019-01-08T07:11:23.779Z,8.66
2019-01-08T07:12:23.770Z,8.67
2019-01-08T07:13:44.767Z,8.67
2019-01-08T07:14:23.750Z,8.73
2019-01-08T07:15:23.744Z,8.78
2019-01-08T07:16:23.738Z,8.74
2019-01-08T07:17:23.729Z,8.67
2019-01-08T07:18:23.724Z,8.67
2019-01-08T07:19:44.718Z,8.64
2019-01-08T07:20:23.721Z,8.67
2019-01-08T07:21:23.763Z,8.70
2019-01-08T07:22:23.692Z,8.69
2019-01-08T07:23:23.680Z,8.64
2019-01-08T07:24:23.669Z,8.69
2019-01-08T07:25:44.684Z,8.58
2019-01-08T07:26:23.658Z,8.61
2019-01-08T07:27:23.663Z,8.61
2019-01-08T07:28:23.638Z,8.56
2019-01-08T07:29:23.635Z,8.55
2019-01-08T07:30:23.633Z,8.48
2019-01-08T07:31:44.719Z,8.60
2019-01-08T07:32:23.609Z,8.58
2019-01-08T07:33:23.602Z,8.55
2019-01-08T07:34:24.552Z,8.48
2019-01-08T07:35:23.583Z,8.49
2019-01-08T07:36:23.578Z,8.49
2019-01-08T07:37:44.579Z,8.52
2019-01-08T07:38:23.558Z,8.51
2019-01-08T07:39:23.551Z,8.48
2019-01-08T07:40:23.542Z,8.49
2019-01-08T07:41:23.542Z,8.56
2019-01-08T07:42:23.531Z,8.60
2019-01-08T07:43:44.527Z,8.63
2019-01-08T07:44:23.510Z,8.56
2019-01-08T07:45:23.501Z,8.53
2019-01-08T07:46:23.517Z,8.58
2019-01-08T07:47:23.486Z,8.53
2019-01-08T07:48:23.483Z,8.60
2019-01-08T07:49:44.494Z,8.69
2019-01-08T07:50:23.467Z,8.67
2019-01-08T07:51:23.453Z,8.60
2019-01-08T07:52:23.453Z,8.58
2019-01-08T07:53:23.435Z,8.55
2019-01-08T07:54:23.430Z,8.51
2019-01-08T07:55:44.429Z,8.58
2019-01-08T07:56:23.412Z,8.60
2019-01-08T07:57:23.406Z,8.55
2019-01-08T07:58:23.400Z,8.71
2019-01-08T07:59:23.391Z,8.58
2019-01-08T08:00:23.380Z,8.58
2019-01-08T08:01:44.555Z,8.70
2019-01-08T08:02:23.364Z,8.67
2019-01-08T08:03:23.370Z,8.69
2019-01-08T08:04:23.349Z,8.64
2019-01-08T08:05:23.339Z,8.70
2019-01-08T08:06:23.330Z,8.69
2019-01-08T08:07:44.330Z,8.56
2019-01-08T08:08:23.315Z,8.69
2019-01-08T08:09:23.307Z,8.58
2019-01-08T08:10:23.301Z,8.56
2019-01-08T08:11:23.294Z,8.60
2019-01-08T08:12:23.287Z,8.60
2019-01-08T08:13:44.287Z,8.52
2019-01-08T08:14:23.267Z,8.56
2019-01-08T08:15:23.261Z,8.55
2019-01-08T08:16:23.258Z,8.53
2019-01-08T08:17:23.245Z,8.52
2019-01-08T08:18:23.240Z,8.42
2019-01-08T08:19:44.235Z,8.51
2019-01-08T08:20:23.223Z,8.49
2019-01-08T08:21:23.247Z,8.48
2019-01-08T08:22:23.207Z,8.46
2019-01-08T08:23:23.195Z,8.42
2019-01-08T08:24:23.194Z,8.41
2019-01-08T08:25:44.184Z,8.41
2019-01-08T08:26:23.175Z,8.31
2019-01-08T08:27:23.167Z,8.33
2019-01-08T08:28:23.168Z,8.23
2019-01-08T08:29:23.185Z,8.19
2019-01-08T08:30:23.140Z,8.28
2019-01-08T08:31:44.212Z,8.30
2019-01-08T08:32:23.812Z,8.24
2019-01-08T08:33:23.116Z,8.19
2019-01-08T08:34:23.108Z,8.23
2019-01-08T08:35:23.097Z,8.33
2019-01-08T08:36:23.091Z,8.30
2019-01-08T08:37:44.085Z,8.34
2019-01-08T08:38:23.075Z,8.33
2019-01-08T08:39:23.063Z,8.33
2019-01-08T08:40:23.125Z,8.36
2019-01-08T08:41:23.045Z,8.38
2019-01-08T08:42:23.050Z,8.36
2019-01-08T08:43:44.040Z,8.42
2019-01-08T08:44:23.024Z,8.37
2019-01-08T08:45:23.018Z,8.38
2019-01-08T08:46:23.009Z,8.38
2019-01-08T08:47:23.007Z,8.34
2019-01-08T08:48:22.990Z,8.41
2019-01-08T08:49:44.001Z,8.42
2019-01-08T08:50:22.980Z,8.41
2019-01-08T08:51:22.968Z,8.30
2019-01-08T08:52:22.961Z,8.36
2019-01-08T08:53:22.955Z,8.38
2019-01-08T08:54:22.955Z,8.33
2019-01-08T08:55:43.944Z,8.37
2019-01-08T08:56:22.929Z,8.38
2019-01-08T08:57:22.921Z,8.34
2019-01-08T08:58:22.925Z,8.41
2019-01-08T08:59:22.921Z,8.38
2019-01-08T09:00:22.893Z,8.36
2019-01-08T09:01:44.096Z,8.34
2019-01-08T09:02:22.891Z,8.34
2019-01-08T09:03:22.880Z,8.34
2019-01-08T09:04:22.869Z,8.36
2019-01-08T09:05:22.860Z,8.41
2019-01-08T09:06:22.850Z,8.33
2019-01-08T09:07:43.846Z,8.37
2019-01-08T09:08:22.827Z,8.28
2019-01-08T09:09:22.822Z,8.33
2019-01-08T09:10:22.814Z,8.34
2019-01-08T09:11:22.813Z,8.33
2019-01-08T09:12:22.797Z,8.34
2019-01-08T09:13:44.349Z,8.30
2019-01-08T09:14:22.784Z,8.33
2019-01-08T09:15:22.773Z,8.34
2019-01-08T09:16:22.764Z,8.33
2019-01-08T09:17:22.758Z,8.20
2019-01-08T09:18:22.748Z,8.16
2019-01-08T09:19:43.754Z,8.26
2019-01-08T09:20:22.728Z,8.26
2019-01-08T09:21:22.724Z,8.23
2019-01-08T09:22:22.729Z,8.28
2019-01-08T09:23:22.709Z,8.20
2019-01-08T09:24:22.695Z,8.28
2019-01-08T09:25:43.696Z,8.28
2019-01-08T09:26:22.678Z,8.18
2019-01-08T09:27:23.002Z,8.34
2019-01-08T09:28:22.677Z,8.30
2019-01-08T09:29:22.656Z,8.31
2019-01-08T09:30:22.657Z,8.34
2019-01-08T09:31:43.706Z,8.37
2019-01-08T09:32:22.632Z,8.34
2019-01-08T09:33:22.631Z,8.36
2019-01-08T09:34:22.614Z,8.34
2019-01-08T09:35:22.602Z,8.33
2019-01-08T09:36:22.599Z,8.30
2019-01-08T09:37:43.667Z,8.30
2019-01-08T09:38:22.576Z,8.41
2019-01-08T09:39:22.589Z,8.42
2019-01-08T09:40:22.840Z,8.48
2019-01-08T09:41:22.556Z,8.36
2019-01-08T09:42:22.559Z,8.41
2019-01-08T09:43:43.541Z,8.45
2019-01-08T09:44:22.588Z,8.49
2019-01-08T09:45:22.754Z,8.48
2019-01-08T09:46:22.522Z,8.61
2019-01-08T09:47:22.510Z,8.55
2019-01-08T09:48:22.505Z,8.61
2019-01-08T09:49:43.523Z,8.60
2019-01-08T09:50:22.486Z,8.56
2019-01-08T09:51:22.470Z,8.56
2019-01-08T09:52:22.470Z,8.56
2019-01-08T09:53:22.461Z,8.60
2019-01-08T09:54:22.451Z,8.58
2019-01-08T09:55:43.460Z,8.56
2019-01-08T09:56:22.434Z,8.64
2019-01-08T09:57:22.428Z,8.63
2019-01-08T09:58:22.424Z,8.58
2019-01-08T09:59:22.410Z,8.71
2019-01-08T10:00:22.409Z,8.81
2019-01-08T10:01:43.493Z,8.74
2019-01-08T10:02:22.560Z,8.82
2019-01-08T10:03:22.381Z,8.76
2019-01-08T10:04:23.013Z,8.74
2019-01-08T10:05:23.649Z,8.73
2019-01-08T10:06:22.349Z,8.73
2019-01-08T10:07:43.354Z,8.79
2019-01-08T10:08:22.341Z,8.82
2019-01-08T10:09:22.332Z,8.79
2019-01-08T10:10:22.319Z,8.87
2019-01-08T10:11:22.316Z,8.87
2019-01-08T10:12:22.304Z,8.82
2019-01-08T10:13:43.303Z,8.89
2019-01-08T10:14:22.290Z,8.88
2019-01-08T10:15:22.311Z,8.82
2019-01-08T10:16:22.271Z,8.91
2019-01-08T10:17:22.264Z,8.87
2019-01-08T10:18:22.490Z,8.84
2019-01-08T10:19:43.256Z,8.91
2019-01-08T10:20:22.244Z,8.87
2019-01-08T10:21:24.289Z,8.89
2019-01-08T10:22:22.240Z,8.81
2019-01-08T10:23:22.221Z,8.85
2019-01-08T10:24:22.217Z,8.74
2019-01-08T10:25:43.210Z,8.84
2019-01-08T10:26:22.199Z,8.76
2019-01-08T10:27:22.211Z,8.78
2019-01-08T10:28:22.179Z,8.84
2019-01-08T10:29:22.286Z,8.78
2019-01-08T10:30:22.162Z,8.81
2019-01-08T10:31:43.375Z,8.87
2019-01-08T10:32:22.155Z,8.76
2019-01-08T10:33:22.138Z,8.79
2019-01-08T10:34:22.139Z,8.89
2019-01-08T10:35:22.125Z,8.99
2019-01-08T10:36:22.125Z,8.89
2019-01-08T10:37:43.121Z,8.95
2019-01-08T10:38:22.099Z,9.03
2019-01-08T10:39:22.096Z,8.97
2019-01-08T10:40:22.086Z,9.08
2019-01-08T10:41:22.084Z,9.06
2019-01-08T10:42:22.067Z,9.08
2019-01-08T10:43:43.069Z,9.08
2019-01-08T10:44:22.055Z,8.97
2019-01-08T10:45:22.052Z,9.02
2019-01-08T10:46:22.059Z,8.94
2019-01-08T10:47:22.030Z,9.08
2019-01-08T10:48:22.064Z,9.06
2019-01-08T10:49:43.038Z,9.16
2019-01-08T10:50:22.013Z,9.16
2019-01-08T10:51:22.048Z,9.08
2019-01-08T10:52:23.942Z,9.19
2019-01-08T10:53:21.993Z,9.08
2019-01-08T10:54:22.004Z,9.13
2019-01-08T10:55:42.978Z,9.16
2019-01-08T10:56:21.985Z,9.22
2019-01-08T10:57:21.958Z,9.14
2019-01-08T10:58:21.957Z,9.19
2019-01-08T10:59:21.960Z,9.22
2019-01-08T11:00:21.933Z,9.18
2019-01-08T11:01:42.976Z,9.19
2019-01-08T11:02:21.924Z,9.32
2019-01-08T11:03:21.909Z,9.36
2019-01-08T11:04:21.901Z,9.36
2019-01-08T11:05:21.890Z,9.31
2019-01-08T11:06:21.887Z,9.47
2019-01-08T11:07:42.887Z,9.47
2019-01-08T11:08:21.870Z,9.51
2019-01-08T11:09:22.022Z,9.40
2019-01-08T11:10:21.859Z,9.43
2019-01-08T11:11:21.852Z,9.65
2019-01-08T11:12:21.846Z,9.64
2019-01-08T11:13:42.841Z,9.58
2019-01-08T11:14:21.829Z,9.65
2019-01-08T11:15:21.823Z,9.61
2019-01-08T11:16:21.812Z,9.58
2019-01-08T11:17:21.806Z,9.61
2019-01-08T11:18:21.803Z,9.61
2019-01-08T11:19:42.796Z,9.58
2019-01-08T11:20:21.786Z,9.56
2019-01-08T11:21:21.774Z,9.58
2019-01-08T11:22:21.767Z,9.62
2019-01-08T11:23:21.969Z,9.55
2019-01-08T11:24:21.750Z,9.59
2019-01-08T11:25:42.762Z,9.62
2019-01-08T11:26:21.750Z,9.58
2019-01-08T11:27:21.729Z,9.56
2019-01-08T11:28:21.725Z,9.54
2019-01-08T11:29:21.719Z,9.56
2019-01-08T11:30:21.724Z,9.54
2019-01-08T11:31:48.795Z,9.55
2019-01-08T11:32:21.697Z,9.50
2019-01-08T11:33:21.691Z,9.37
2019-01-08T11:34:21.686Z,9.28
2019-01-08T11:35:21.675Z,9.23
2019-01-08T11:36:22.167Z,9.29
2019-01-08T11:37:42.668Z,9.18
2019-01-08T11:38:21.658Z,9.16
2019-01-08T11:39:21.649Z,9.19
2019-01-08T11:40:21.643Z,9.22
2019-01-08T11:41:21.629Z,9.18
2019-01-08T11:42:21.630Z,9.19
2019-01-08T11:43:42.618Z,9.18
2019-01-08T11:44:21.609Z,9.04
2019-01-08T11:45:21.600Z,9.03
2019-01-08T11:46:21.594Z,9.03
2019-01-08T11:47:21.583Z,9.00
2019-01-08T11:48:21.586Z,9.08
2019-01-08T11:49:42.583Z,9.00
2019-01-08T11:50:21.640Z,9.03
2019-01-08T11:51:21.607Z,8.97
2019-01-08T11:52:21.573Z,8.95
2019-01-08T11:53:21.538Z,8.97
2019-01-08T11:54:21.565Z,9.06
2019-01-08T11:55:42.539Z,9.00
2019-01-08T11:56:21.522Z,9.10
2019-01-08T11:57:21.507Z,9.02
2019-01-08T11:58:21.499Z,9.00
2019-01-08T11:59:21.492Z,8.91
2019-01-08T12:00:23.441Z,8.94
2019-01-08T12:01:42.582Z,8.81
2019-01-08T12:02:21.471Z,8.73
2019-01-08T12:03:21.463Z,8.79
2019-01-08T12:04:21.453Z,8.81
2019-01-08T12:05:21.443Z,8.70
2019-01-08T12:06:21.436Z,8.67
2019-01-08T12:07:42.438Z,8.70
2019-01-08T12:08:21.427Z,8.70
2019-01-08T12:09:21.415Z,8.73
2019-01-08T12:10:21.424Z,8.58
2019-01-08T12:11:21.393Z,8.60
2019-01-08T12:12:21.413Z,8.66
2019-01-08T12:13:42.389Z,8.70
2019-01-08T12:14:21.372Z,8.64
2019-01-08T12:15:21.370Z,8.67
2019-01-08T12:16:21.363Z,8.76
2019-01-08T12:17:21.347Z,8.79
2019-01-08T12:18:21.342Z,8.79
2019-01-08T12:19:42.341Z,8.73
2019-01-08T12:20:21.336Z,8.76
2019-01-08T12:21:21.403Z,8.78
2019-01-08T12:22:21.313Z,8.82
2019-01-08T12:23:21.306Z,8.87
2019-01-08T12:24:21.297Z,8.82
2019-01-08T12:25:42.298Z,8.84
2019-01-08T12:26:21.283Z,8.91
2019-01-08T12:27:21.812Z,8.92
2019-01-08T12:28:21.354Z,8.88
2019-01-08T12:29:21.516Z,8.88
2019-01-08T12:30:21.301Z,8.92
2019-01-08T12:31:42.299Z,8.91
2019-01-08T12:32:21.272Z,8.88
2019-01-08T12:33:21.227Z,8.91
2019-01-08T12:34:21.264Z,9.00
2019-01-08T12:35:21.223Z,8.89
2019-01-08T12:36:21.224Z,8.91
2019-01-08T12:37:42.243Z,9.02
2019-01-08T12:38:21.188Z,9.00
2019-01-08T12:39:21.183Z,8.95
2019-01-08T12:40:21.178Z,9.00
2019-01-08T12:41:21.162Z,9.08
2019-01-08T12:42:21.160Z,9.06
2019-01-08T12:43:42.380Z,9.08
2019-01-08T12:44:21.134Z,9.08
2019-01-08T12:45:21.146Z,9.02
2019-01-08T12:46:21.309Z,9.11
2019-01-08T12:47:21.120Z,9.03
2019-01-08T12:48:21.120Z,9.08
2019-01-08T12:49:42.111Z,9.08
2019-01-08T12:50:21.271Z,9.10
2019-01-08T12:51:21.096Z,9.11
2019-01-08T12:52:21.408Z,9.13
2019-01-08T12:53:21.142Z,9.16
2019-01-08T12:54:21.072Z,9.13
2019-01-08T12:55:42.060Z,9.21
2019-01-08T12:56:21.052Z,9.25
2019-01-08T12:57:21.057Z,9.22
2019-01-08T12:58:21.063Z,9.22
2019-01-08T12:59:21.026Z,9.19
2019-01-08T13:00:21.035Z,9.18
2019-01-08T13:01:43.189Z,9.26
2019-01-08T13:02:21.703Z,9.26
2019-01-08T13:03:20.990Z,9.31
2019-01-08T13:04:20.992Z,9.31
2019-01-08T13:05:21.007Z,9.26
2019-01-08T13:06:20.973Z,9.25
2019-01-08T13:07:41.972Z,9.26
2019-01-08T13:08:21.415Z,9.31
2019-01-08T13:09:20.951Z,9.36
2019-01-08T13:10:20.949Z,9.44
2019-01-08T13:11:20.942Z,9.46
2019-01-08T13:12:20.930Z,9.44
2019-01-08T13:13:41.930Z,9.46
2019-01-08T13:14:20.913Z,9.47
2019-01-08T13:15:20.913Z,9.44
2019-01-08T13:16:20.897Z,9.44
2019-01-08T13:17:20.898Z,9.43
2019-01-08T13:18:20.890Z,9.55